Terminal Aerodrome Forecast
Issued by NWS

Home | Current Version | Previous Version | Text Only | Print | Product List | Glossary On
Versions: 1 2 3 4 5 6 7 8 9 10 11 12 13 14 15
000
FTUS44 KLZK 011700
TAFHOT
TAF
KHOT 011736Z 0118/0218 29004KT P6SM FEW010 BKN060 OVC090
     FM011900 30010KT P6SM SCT025 BKN060 OVC090
     FM012100 30010G18KT P6SM SCT015 BKN025 BKN050
     FM020100 31010G16KT P6SM SCT025
     FM021200 32007KT P6SM FEW027=

USA.gov is the U.S. government's official web portal to all federal, state and local government web resources and services.